createdAt,value
2022-11-12T00:00:23.497Z,94.6
2022-11-12T00:01:39.792Z,94.7
2022-11-12T00:02:56.081Z,94.5
2022-11-12T00:04:11.399Z,94.9
2022-11-12T00:05:27.688Z,95.1
2022-11-12T00:06:43.991Z,95.6
2022-11-12T00:08:00.283Z,95.5
2022-11-12T00:09:16.571Z,95.6
2022-11-12T00:11:49.174Z,95.8
2022-11-12T00:13:05.455Z,95.7
2022-11-12T00:14:21.759Z,95.8
2022-11-12T00:15:38.058Z,95.8
2022-11-12T00:16:54.341Z,96
2022-11-12T00:18:10.646Z,95.8
2022-11-12T00:19:26.928Z,95.9
2022-11-12T00:20:42.248Z,95.8
2022-11-12T00:21:58.539Z,95.9
2022-11-12T00:23:14.830Z,95.9
2022-11-12T00:24:31.138Z,96
2022-11-12T00:27:03.712Z,95.9
2022-11-12T00:28:20.006Z,95.9
2022-11-12T00:29:36.303Z,96
2022-11-12T00:30:52.593Z,96
2022-11-12T00:32:08.890Z,96
2022-11-12T00:34:41.486Z,96
2022-11-12T00:35:56.802Z,96
2022-11-12T00:37:12.121Z,95.8
2022-11-12T00:38:28.397Z,95.8
2022-11-12T00:39:44.709Z,95.7
2022-11-12T00:41:00.993Z,96
2022-11-12T00:42:17.281Z,95.9
2022-11-12T00:43:33.578Z,95.8
2022-11-12T00:44:49.879Z,95.9
2022-11-12T00:46:06.182Z,95.9
2022-11-12T00:47:22.467Z,96
2022-11-12T00:49:55.050Z,96.2
2022-11-12T00:51:11.355Z,96.3
2022-11-12T00:52:27.654Z,96.3
2022-11-12T00:53:42.965Z,96.3
2022-11-12T00:54:59.256Z,96.3
2022-11-12T00:56:15.547Z,96.3
2022-11-12T00:57:31.848Z,96.2
2022-11-12T00:58:48.129Z,96.3
2022-11-12T01:00:04.428Z,96.5
2022-11-12T01:01:20.717Z,96.1
2022-11-12T01:02:37.020Z,96.4
2022-11-12T01:03:52.342Z,96.7
2022-11-12T01:05:07.653Z,96.8
2022-11-12T01:06:23.936Z,96.9
2022-11-12T01:07:40.245Z,96.9
2022-11-12T01:08:56.521Z,97.2
2022-11-12T01:10:12.832Z,97.2
2022-11-12T01:11:29.110Z,97.2
2022-11-12T01:12:45.407Z,97.3
2022-11-12T01:14:01.000Z,97.1
2022-11-12T01:15:18.005Z,97
2022-11-12T01:16:34.300Z,97
2022-11-12T01:17:50.585Z,97
2022-11-12T01:19:06.885Z,96.9
2022-11-12T01:20:23.180Z,96.9
2022-11-12T01:21:38.495Z,97
2022-11-12T01:22:54.775Z,97
2022-11-12T01:24:11.074Z,97.2
2022-11-12T01:25:27.378Z,97.3
2022-11-12T01:26:43.677Z,97.2
2022-11-12T01:27:59.961Z,97.2
2022-11-12T01:29:16.249Z,97.2
2022-11-12T01:30:32.543Z,97.2
2022-11-12T01:31:48.844Z,97.4
2022-11-12T01:33:05.137Z,97.4
2022-11-12T01:35:37.732Z,97.3
2022-11-12T01:36:54.019Z,97.5
2022-11-12T01:38:09.341Z,97.4
2022-11-12T01:39:25.619Z,97.7
2022-11-12T01:40:41.934Z,97.8
2022-11-12T01:41:58.219Z,97.5
2022-11-12T01:43:14.515Z,97.8
2022-11-12T01:44:30.815Z,97.9
2022-11-12T01:45:47.111Z,98.1
2022-11-12T01:47:03.390Z,98.3
2022-11-12T01:48:19.693Z,98.4
2022-11-12T01:50:52.275Z,98.3
2022-11-12T01:52:08.568Z,98.2
2022-11-12T01:53:24.866Z,97.9
2022-11-12T01:54:40.188Z,97.9
2022-11-12T01:55:56.484Z,97.9
2022-11-12T01:57:12.778Z,97.8
2022-11-12T01:58:29.064Z,97.7
2022-11-12T01:59:45.360Z,97.6
2022-11-12T02:01:01.647Z,97.9
2022-11-12T02:02:17.941Z,98.1
2022-11-12T02:03:34.239Z,98.4
2022-11-12T02:06:06.833Z,98.2
2022-11-12T02:07:23.137Z,98.3
2022-11-12T02:08:39.414Z,98.2
2022-11-12T02:11:12.021Z,98.2
2022-11-12T02:13:43.622Z,98.3
2022-11-12T02:14:58.935Z,98.6
2022-11-12T02:16:14.249Z,98.4
2022-11-12T02:17:30.542Z,98.6
2022-11-12T02:18:46.842Z,98.7
2022-11-12T02:20:03.126Z,98.8
2022-11-12T02:21:19.432Z,98.9
2022-11-12T02:22:35.710Z,98.9
2022-11-12T02:23:52.015Z,98.6
2022-11-12T02:25:08.312Z,98.7
2022-11-12T02:26:24.604Z,98.7
2022-11-12T02:27:40.890Z,98.7
2022-11-12T02:28:56.209Z,98.7
2022-11-12T02:30:11.524Z,98.6
2022-11-12T02:31:27.821Z,98.6
2022-11-12T02:32:44.121Z,98.5
2022-11-12T02:34:00.398Z,98.6
2022-11-12T02:35:16.695Z,98.8
2022-11-12T02:36:32.989Z,98.9
2022-11-12T02:37:49.290Z,98.9
2022-11-12T02:39:05.578Z,98.9
2022-11-12T02:40:21.885Z,98.7
2022-11-12T02:41:38.186Z,98.8
2022-11-12T02:42:54.466Z,98.6
2022-11-12T02:44:10.775Z,98.5
2022-11-12T02:45:27.062Z,98.3
2022-11-12T02:46:42.375Z,98.7
2022-11-12T02:47:58.661Z,99.3
2022-11-12T02:49:14.966Z,99.5
2022-11-12T02:50:31.248Z,99.8
2022-11-12T02:51:47.546Z,99.7
2022-11-12T02:53:03.841Z,99.8
2022-11-12T02:54:20.126Z,100
2022-11-12T02:55:36.430Z,100
2022-11-12T02:56:52.715Z,99.8
2022-11-12T02:58:09.014Z,100
2022-11-12T02:59:25.322Z,100
2022-11-12T03:00:41.610Z,100
2022-11-12T03:01:57.910Z,100
2022-11-12T03:03:13.214Z,100
2022-11-12T03:04:29.506Z,100
2022-11-12T03:07:02.097Z,100
2022-11-12T03:08:18.397Z,100
2022-11-12T03:09:34.685Z,100
2022-11-12T03:10:50.991Z,100
2022-11-12T03:12:07.265Z,100
2022-11-12T03:13:23.580Z,100
2022-11-12T03:14:39.854Z,100
2022-11-12T03:15:56.166Z,100
2022-11-12T03:17:12.463Z,100
2022-11-12T03:18:28.747Z,100
2022-11-12T03:19:44.053Z,100
2022-11-12T03:22:16.649Z,100
2022-11-12T03:23:32.943Z,100
2022-11-12T03:24:49.246Z,100
2022-11-12T03:26:05.539Z,100
2022-11-12T03:27:21.825Z,100
2022-11-12T03:28:38.125Z,100
2022-11-12T03:29:54.424Z,100
2022-11-12T03:31:10.709Z,100
2022-11-12T03:32:27.000Z,100
2022-11-12T03:33:43.292Z,100
2022-11-12T03:34:59.592Z,100
2022-11-12T03:36:14.914Z,100
2022-11-12T03:37:31.204Z,100
2022-11-12T03:38:47.489Z,100
2022-11-12T03:40:03.796Z,100
2022-11-12T03:41:20.089Z,100
2022-11-12T03:42:36.376Z,100
2022-11-12T03:43:52.666Z,100
2022-11-12T03:45:08.973Z,100
2022-11-12T03:46:25.263Z,100
2022-11-12T03:47:41.565Z,100
2022-11-12T03:48:57.849Z,100
2022-11-12T03:50:14.142Z,100
2022-11-12T03:51:30.441Z,100
2022-11-12T03:52:45.760Z,100
2022-11-12T03:54:02.050Z,100
2022-11-12T03:55:18.337Z,100
2022-11-12T03:56:34.638Z,100
2022-11-12T03:57:50.932Z,100
2022-11-12T03:59:07.222Z,100
2022-11-12T04:00:23.521Z,100
2022-11-12T04:01:39.811Z,100
2022-11-12T04:02:55.133Z,100
2022-11-12T04:04:11.423Z,100
2022-11-12T04:05:27.712Z,100
2022-11-12T04:06:44.021Z,100
2022-11-12T04:08:00.301Z,100
2022-11-12T04:09:16.598Z,100
2022-11-12T04:10:32.882Z,100
2022-11-12T04:11:49.173Z,100
2022-11-12T04:13:05.474Z,100
2022-11-12T04:14:21.775Z,100
2022-11-12T04:15:38.063Z,100
2022-11-12T04:16:54.361Z,100
2022-11-12T04:18:10.657Z,100
2022-11-12T04:19:25.955Z,100
2022-11-12T04:20:42.266Z,100
2022-11-12T04:21:58.550Z,100
2022-11-12T04:23:14.846Z,100
2022-11-12T04:24:31.135Z,100
2022-11-12T04:25:47.435Z,100
2022-11-12T04:27:03.741Z,100
2022-11-12T04:28:20.021Z,100
2022-11-12T04:29:36.330Z,100
2022-11-12T04:30:52.609Z,100
2022-11-12T04:33:25.206Z,100
2022-11-12T04:34:41.505Z,100
2022-11-12T04:35:56.809Z,100
2022-11-12T04:37:13.102Z,100
2022-11-12T04:38:29.408Z,100
2022-11-12T04:39:45.700Z,100
2022-11-12T04:41:01.987Z,100
2022-11-12T04:42:18.291Z,100
2022-11-12T04:43:34.574Z,100
2022-11-12T04:44:50.867Z,100
2022-11-12T04:46:07.175Z,100
2022-11-12T04:47:23.473Z,100
2022-11-12T04:48:39.760Z,100
2022-11-12T04:51:12.338Z,100
2022-11-12T04:52:27.658Z,100
2022-11-12T04:53:43.958Z,100
2022-11-12T04:55:00.245Z,100
2022-11-12T04:56:16.539Z,100
2022-11-12T04:57:32.829Z,100
2022-11-12T04:58:49.140Z,100
2022-11-12T05:00:05.422Z,100
2022-11-12T05:01:21.712Z,100
2022-11-12T05:02:38.008Z,100
2022-11-12T05:03:54.312Z,100
2022-11-12T05:05:10.599Z,100
2022-11-12T05:06:26.897Z,100
2022-11-12T05:07:43.200Z,100
2022-11-12T05:08:58.502Z,100
2022-11-12T05:10:14.800Z,100
2022-11-12T05:11:31.091Z,100
2022-11-12T05:12:47.391Z,100
2022-11-12T05:14:03.683Z,100
2022-11-12T05:15:19.975Z,100
2022-11-12T05:16:36.266Z,100
2022-11-12T05:17:52.561Z,100
2022-11-12T05:19:08.866Z,100
2022-11-12T05:20:25.167Z,100
2022-11-12T05:21:41.446Z,100
2022-11-12T05:22:57.738Z,100
2022-11-12T05:24:14.043Z,100
2022-11-12T05:25:29.347Z,100
2022-11-12T05:26:45.652Z,100
2022-11-12T05:28:01.946Z,100
2022-11-12T05:29:18.234Z,100
2022-11-12T05:30:34.538Z,100
2022-11-12T05:31:50.832Z,100
2022-11-12T05:33:07.126Z,100
2022-11-12T05:34:23.420Z,100
2022-11-12T05:35:39.711Z,100
2022-11-12T05:36:56.006Z,100
2022-11-12T05:39:28.593Z,100
2022-11-12T05:40:44.891Z,100
2022-11-12T05:42:00.188Z,100
2022-11-12T05:43:16.441Z,100
2022-11-12T05:44:32.733Z,100
2022-11-12T05:45:49.031Z,100
2022-11-12T05:47:05.281Z,100
2022-11-12T05:48:21.530Z,100
2022-11-12T05:49:37.808Z,100
2022-11-12T05:50:54.118Z,100
2022-11-12T05:52:10.359Z,100
2022-11-12T05:53:26.602Z,100
2022-11-12T05:54:42.838Z,100
2022-11-12T05:55:59.089Z,100
2022-11-12T05:57:15.321Z,100
2022-11-12T05:58:30.578Z,100
2022-11-12T05:59:46.825Z,100
2022-11-12T06:01:03.072Z,100
2022-11-12T06:02:19.299Z,100
2022-11-12T06:03:35.547Z,100
2022-11-12T06:04:51.779Z,100
2022-11-12T06:06:08.035Z,100
2022-11-12T06:07:24.270Z,100
2022-11-12T06:08:40.502Z,100
2022-11-12T06:09:56.761Z,100
2022-11-12T06:11:12.993Z,100
2022-11-12T06:12:29.233Z,100
2022-11-12T06:13:45.465Z,100
2022-11-12T06:15:00.732Z,100
2022-11-12T06:16:16.978Z,100
2022-11-12T06:17:33.207Z,100
2022-11-12T06:18:49.447Z,100
2022-11-12T06:20:05.696Z,100
2022-11-12T06:21:21.927Z,100
2022-11-12T06:23:54.420Z,100
2022-11-12T06:25:10.660Z,100
2022-11-12T06:26:26.902Z,100
2022-11-12T06:27:43.148Z,100
2022-11-12T06:28:59.379Z,100
2022-11-12T06:30:15.627Z,100
2022-11-12T06:31:30.874Z,100
2022-11-12T06:32:47.112Z,100
2022-11-12T06:34:03.358Z,100
2022-11-12T06:35:19.605Z,100
2022-11-12T06:36:35.834Z,100
2022-11-12T06:37:52.082Z,100
2022-11-12T06:39:08.320Z,100
2022-11-12T06:40:24.563Z,100
2022-11-12T06:41:40.809Z,100
2022-11-12T06:42:57.047Z,100
2022-11-12T06:44:13.293Z,100
2022-11-12T06:45:29.526Z,100
2022-11-12T06:46:45.769Z,100
2022-11-12T06:48:01.020Z,100
2022-11-12T06:49:17.256Z,100
2022-11-12T06:50:33.506Z,100
2022-11-12T06:51:49.749Z,100
2022-11-12T06:53:05.973Z,100
2022-11-12T06:54:22.226Z,100
2022-11-12T06:55:38.457Z,100
2022-11-12T06:56:54.699Z,100
2022-11-12T06:58:10.938Z,100
2022-11-12T06:59:27.185Z,100
2022-11-12T07:00:43.434Z,100
2022-11-12T07:03:15.900Z,100
2022-11-12T07:04:31.162Z,100
2022-11-12T07:05:47.409Z,100
2022-11-12T07:07:03.649Z,100
2022-11-12T07:08:19.886Z,100
2022-11-12T07:09:36.128Z,100
2022-11-12T07:10:52.369Z,100
2022-11-12T07:12:08.600Z,100
2022-11-12T07:13:24.849Z,100
2022-11-12T07:14:41.092Z,100
2022-11-12T07:15:57.336Z,100
2022-11-12T07:17:13.563Z,100
2022-11-12T07:18:29.823Z,100
2022-11-12T07:19:46.062Z,100
2022-11-12T07:21:01.315Z,100
2022-11-12T07:22:17.546Z,100
2022-11-12T07:23:33.784Z,100
2022-11-12T07:26:06.265Z,100
2022-11-12T07:27:22.515Z,100
2022-11-12T07:28:38.755Z,100
2022-11-12T07:29:55.002Z,100
2022-11-12T07:31:11.242Z,100
2022-11-12T07:33:43.716Z,100
2022-11-12T07:34:59.957Z,100
2022-11-12T07:36:16.202Z,100
2022-11-12T07:37:31.448Z,100
2022-11-12T07:38:47.689Z,100
2022-11-12T07:40:03.939Z,100
2022-11-12T07:41:20.184Z,100
2022-11-12T07:42:36.410Z,100
2022-11-12T07:43:52.666Z,100
2022-11-12T07:45:08.908Z,100
2022-11-12T07:46:25.142Z,100
2022-11-12T07:47:41.384Z,100
2022-11-12T07:48:57.632Z,100
2022-11-12T07:50:13.852Z,100
2022-11-12T07:51:30.096Z,100
2022-11-12T07:52:46.348Z,100
2022-11-12T07:54:01.606Z,100
2022-11-12T07:55:17.849Z,100
2022-11-12T07:56:34.070Z,100
2022-11-12T07:57:50.331Z,100
2022-11-12T07:59:06.569Z,100
2022-11-12T08:00:22.812Z,100
2022-11-12T08:01:39.051Z,100
2022-11-12T08:02:55.278Z,100
2022-11-12T08:04:11.514Z,100
2022-11-12T08:05:27.773Z,100
2022-11-12T08:06:44.015Z,100
2022-11-12T08:08:00.244Z,100
2022-11-12T08:09:16.477Z,100
2022-11-12T08:10:31.738Z,100
2022-11-12T08:11:47.980Z,100
2022-11-12T08:13:04.226Z,100
2022-11-12T08:14:20.461Z,100
2022-11-12T08:15:36.712Z,100
2022-11-12T08:16:52.945Z,100
2022-11-12T08:18:08.212Z,100
2022-11-12T08:19:24.445Z,100
2022-11-12T08:20:40.688Z,100
2022-11-12T08:21:56.933Z,100
2022-11-12T08:23:13.182Z,100
2022-11-12T08:24:29.409Z,100
2022-11-12T08:27:01.884Z,100
2022-11-12T08:28:18.126Z,100
2022-11-12T08:29:34.369Z,100
2022-11-12T08:30:50.615Z,100
2022-11-12T08:32:06.844Z,100
2022-11-12T08:34:39.333Z,100
2022-11-12T08:35:54.586Z,100
2022-11-12T08:37:10.825Z,100
2022-11-12T08:38:27.068Z,100
2022-11-12T08:39:43.317Z,99.8
2022-11-12T08:42:15.791Z,100
2022-11-12T08:43:31.062Z,100
2022-11-12T08:44:46.303Z,100
2022-11-12T08:46:02.563Z,100
2022-11-12T08:47:18.795Z,99.6
2022-11-12T08:49:51.275Z,99.4
2022-11-12T08:51:07.520Z,98.8
2022-11-12T08:52:23.761Z,98.3
2022-11-12T08:53:39.997Z,98.3
2022-11-12T08:54:56.229Z,98.6
2022-11-12T08:57:28.716Z,98.9
2022-11-12T09:00:01.199Z,98.1
2022-11-12T09:01:16.457Z,97.6
2022-11-12T09:02:31.718Z,97.5
2022-11-12T09:05:04.191Z,97.7
2022-11-12T09:06:20.443Z,97.3
2022-11-12T09:07:36.686Z,97.2
2022-11-12T09:08:52.916Z,97.8
2022-11-12T09:10:09.159Z,98.2
2022-11-12T09:11:25.394Z,96.5
2022-11-12T09:12:41.653Z,95.8
2022-11-12T09:13:57.889Z,95.8
2022-11-12T09:15:14.127Z,95.2
2022-11-12T09:16:30.371Z,94.7
2022-11-12T09:17:46.607Z,95
2022-11-12T09:19:01.861Z,95
2022-11-12T09:20:18.106Z,94.7
2022-11-12T09:21:34.352Z,94.5
2022-11-12T09:22:50.589Z,94.1
2022-11-12T09:24:06.820Z,94.3
2022-11-12T09:25:23.067Z,94.5
2022-11-12T09:26:39.309Z,93.9
2022-11-12T09:27:55.554Z,93.5
2022-11-12T09:29:10.818Z,93.2
2022-11-12T09:30:26.065Z,92.5
2022-11-12T09:31:42.298Z,92.5
2022-11-12T09:32:58.546Z,91.9
2022-11-12T09:34:14.781Z,91.6
2022-11-12T09:35:31.033Z,92.3
2022-11-12T09:36:47.271Z,92.7
2022-11-12T09:38:03.506Z,93.5
2022-11-12T09:39:19.759Z,91.9
2022-11-12T09:40:35.980Z,91.9
2022-11-12T09:41:52.221Z,93.7
2022-11-12T09:43:07.493Z,93.1
2022-11-12T09:44:22.748Z,93
2022-11-12T09:45:38.982Z,93.5
2022-11-12T09:46:55.236Z,92.2
2022-11-12T09:48:11.469Z,91.5
2022-11-12T09:49:27.717Z,92.3
2022-11-12T09:50:43.939Z,93.2
2022-11-12T09:52:00.197Z,93.7
2022-11-12T09:53:16.423Z,93.1
2022-11-12T09:54:32.662Z,91.1
2022-11-12T09:55:48.912Z,90.5
2022-11-12T09:58:21.404Z,89.2
2022-11-12T09:59:37.638Z,91.5
2022-11-12T10:00:52.887Z,89.9
2022-11-12T10:02:09.125Z,89.6
2022-11-12T10:03:25.361Z,88.7
2022-11-12T10:04:41.613Z,88.5
2022-11-12T10:05:57.856Z,88.6
2022-11-12T10:07:14.082Z,89.5
2022-11-12T10:08:30.324Z,89.5
2022-11-12T10:09:46.576Z,88.8
2022-11-12T10:11:02.824Z,88.4
2022-11-12T10:12:19.044Z,89.5
2022-11-12T10:13:35.287Z,88.2
2022-11-12T10:14:51.532Z,88.7
2022-11-12T10:16:07.772Z,87.7
2022-11-12T10:17:23.026Z,87.3
2022-11-12T10:18:39.261Z,88.2
2022-11-12T10:19:55.504Z,88.6
2022-11-12T10:21:11.761Z,87.7
2022-11-12T10:22:27.986Z,86.7
2022-11-12T10:23:44.238Z,87
2022-11-12T10:25:00.464Z,86.8
2022-11-12T10:26:16.718Z,86
2022-11-12T10:27:32.945Z,85.6
2022-11-12T10:28:49.205Z,86
2022-11-12T10:30:05.433Z,86.3
2022-11-12T10:31:21.668Z,86.9
2022-11-12T10:33:54.148Z,85.8
2022-11-12T10:35:09.408Z,84.8
2022-11-12T10:36:25.655Z,84.1
2022-11-12T10:37:41.887Z,83.5
2022-11-12T10:38:58.144Z,85.4
2022-11-12T10:40:14.366Z,85.1
2022-11-12T10:41:30.621Z,85.5
2022-11-12T10:42:46.860Z,84.8
2022-11-12T10:44:03.094Z,84.2
2022-11-12T10:45:19.343Z,83.9
2022-11-12T10:46:35.575Z,83.6
2022-11-12T10:47:51.821Z,83.5
2022-11-12T10:49:08.061Z,82.1
2022-11-12T10:50:24.302Z,83
2022-11-12T10:51:39.553Z,81
2022-11-12T10:52:55.804Z,81.5
2022-11-12T10:54:12.041Z,82.4
2022-11-12T10:55:28.274Z,82.2
2022-11-12T10:56:44.517Z,80.8
2022-11-12T10:58:00.762Z,81.6
2022-11-12T10:59:16.000Z,79.5
2022-11-12T11:00:33.238Z,81.6
2022-11-12T11:01:49.483Z,81.3
2022-11-12T11:03:05.713Z,80.9
2022-11-12T11:04:21.961Z,82.1
2022-11-12T11:05:38.195Z,82.5
2022-11-12T11:06:54.443Z,82.7
2022-11-12T11:08:10.685Z,82.6
2022-11-12T11:09:25.933Z,83.2
2022-11-12T11:10:42.187Z,82.9
2022-11-12T11:11:58.419Z,82.5
2022-11-12T11:13:14.658Z,80.9
2022-11-12T11:14:30.901Z,81.4
2022-11-12T11:15:47.148Z,81.2
2022-11-12T11:17:03.373Z,81.6
2022-11-12T11:18:19.614Z,82.8
2022-11-12T11:19:35.857Z,81.6
2022-11-12T11:20:52.111Z,81.7
2022-11-12T11:22:08.348Z,78.9
2022-11-12T11:23:24.579Z,79.8
2022-11-12T11:24:40.820Z,78.2
2022-11-12T11:25:56.076Z,78.5
2022-11-12T11:27:12.319Z,78.5
2022-11-12T11:28:28.564Z,79.1
2022-11-12T11:29:44.807Z,78.4
2022-11-12T11:31:01.049Z,77.6
2022-11-12T11:32:17.290Z,78.5
2022-11-12T11:33:33.511Z,78.3
2022-11-12T11:34:49.756Z,77.9
2022-11-12T11:36:06.009Z,77.9
2022-11-12T11:37:22.240Z,78.3
2022-11-12T11:38:38.471Z,78.5
2022-11-12T11:39:54.722Z,78.1
2022-11-12T11:42:27.199Z,78.9
2022-11-12T11:43:42.455Z,78.8
2022-11-12T11:44:58.688Z,78.9
2022-11-12T11:46:14.928Z,79.3
2022-11-12T11:48:47.416Z,78
2022-11-12T11:50:03.659Z,78.8
2022-11-12T11:51:19.905Z,77.5
2022-11-12T11:52:36.149Z,77.5
2022-11-12T11:53:52.375Z,77.8
2022-11-12T11:55:08.612Z,78
2022-11-12T11:56:24.859Z,78.3
2022-11-12T11:57:41.098Z,78
2022-11-12T11:58:57.345Z,78
2022-11-12T12:00:12.601Z,78.7
2022-11-12T12:01:28.844Z,79.2
2022-11-12T12:02:45.090Z,79
2022-11-12T12:04:01.316Z,79.3
2022-11-12T12:05:17.555Z,78.8
2022-11-12T12:06:33.793Z,78.2
2022-11-12T12:07:50.039Z,78.9
2022-11-12T12:09:06.270Z,79.4
2022-11-12T12:10:22.528Z,79.5
2022-11-12T12:11:38.757Z,79.5
2022-11-12T12:12:55.006Z,79.5
2022-11-12T12:14:11.234Z,79.1
2022-11-12T12:15:27.474Z,79.1
2022-11-12T12:16:42.747Z,78.6
2022-11-12T12:17:58.982Z,78.9
2022-11-12T12:19:15.216Z,78.8
2022-11-12T12:20:31.450Z,78.8
2022-11-12T12:21:47.710Z,79.3
2022-11-12T12:23:03.940Z,80
2022-11-12T12:24:20.190Z,80.2
2022-11-12T12:25:36.416Z,79.9
2022-11-12T12:26:52.661Z,79.8
2022-11-12T12:28:08.896Z,78.8
2022-11-12T12:29:25.143Z,78.9
2022-11-12T12:30:41.384Z,79.2
2022-11-12T12:31:57.620Z,79.6
2022-11-12T12:33:12.892Z,79.8
2022-11-12T12:34:29.129Z,79.7
2022-11-12T12:35:45.372Z,79.8
2022-11-12T12:37:01.609Z,80.5
2022-11-12T12:38:17.839Z,81.4
2022-11-12T12:39:34.095Z,80.3
2022-11-12T12:40:50.328Z,80.7
2022-11-12T12:42:06.574Z,79.8
2022-11-12T12:43:22.813Z,80.1
2022-11-12T12:44:39.047Z,80.2
2022-11-12T12:45:55.278Z,80.2
2022-11-12T12:47:11.523Z,79.7
2022-11-12T12:48:27.776Z,78.4
2022-11-12T12:49:43.028Z,78.5
2022-11-12T12:50:59.255Z,77.9
2022-11-12T12:52:15.493Z,77.4
2022-11-12T12:53:31.744Z,78.1
2022-11-12T12:54:47.983Z,78.4
2022-11-12T12:56:04.218Z,77.7
2022-11-12T12:57:20.469Z,77.2
2022-11-12T12:58:36.699Z,77.4
2022-11-12T13:01:09.188Z,77.7
2022-11-12T13:02:25.432Z,77.7
2022-11-12T13:03:41.666Z,77.7
2022-11-12T13:04:57.904Z,77.7
2022-11-12T13:06:13.157Z,77.4
2022-11-12T13:07:29.409Z,77.6
2022-11-12T13:08:45.633Z,77.7
2022-11-12T13:10:01.874Z,77.6
2022-11-12T13:11:18.115Z,77.6
2022-11-12T13:12:34.359Z,77
2022-11-12T13:13:50.610Z,76
2022-11-12T13:15:06.839Z,76.3
2022-11-12T13:16:23.072Z,76.6
2022-11-12T13:17:39.316Z,76.8
2022-11-12T13:18:55.571Z,78.4
2022-11-12T13:20:11.801Z,78.6
2022-11-12T13:21:28.039Z,78.2
2022-11-12T13:22:44.287Z,78.3
2022-11-12T13:23:59.548Z,77.8
2022-11-12T13:25:15.783Z,77.5
2022-11-12T13:26:32.015Z,78.1
2022-11-12T13:27:48.260Z,78.3
2022-11-12T13:29:04.507Z,78.2
2022-11-12T13:30:20.744Z,78
2022-11-12T13:31:36.987Z,78
2022-11-12T13:32:53.215Z,77.9
2022-11-12T13:34:09.463Z,77.9
2022-11-12T13:35:25.704Z,77.3
2022-11-12T13:36:41.930Z,77.1
2022-11-12T13:37:58.181Z,76.6
2022-11-12T13:39:14.411Z,77.4
2022-11-12T13:40:30.659Z,76.8
2022-11-12T13:41:45.911Z,76.4
2022-11-12T13:43:02.160Z,76.9
2022-11-12T13:44:18.397Z,76.2
2022-11-12T13:45:34.633Z,76
2022-11-12T13:46:50.868Z,76.7
2022-11-12T13:48:07.103Z,76.6
2022-11-12T13:49:23.359Z,75.7
2022-11-12T13:50:39.591Z,75.8
2022-11-12T13:51:55.833Z,77
2022-11-12T13:53:12.079Z,77.3
2022-11-12T13:54:28.321Z,77.4
2022-11-12T13:55:44.549Z,77.8
2022-11-12T13:57:00.789Z,78
2022-11-12T13:58:16.040Z,78.4
2022-11-12T13:59:32.299Z,77.6
2022-11-12T14:02:04.764Z,78.3
2022-11-12T14:03:21.007Z,78.2
2022-11-12T14:04:37.245Z,77
2022-11-12T14:05:53.497Z,77.2
2022-11-12T14:07:09.721Z,77.1
2022-11-12T14:09:42.211Z,77
2022-11-12T14:10:58.446Z,78.1
2022-11-12T14:12:14.696Z,79.8
2022-11-12T14:13:30.923Z,82
2022-11-12T14:14:46.180Z,82.7
2022-11-12T14:16:02.435Z,82.1
2022-11-12T14:17:18.676Z,82.8
2022-11-12T14:18:34.909Z,83.5
2022-11-12T14:19:51.153Z,83.8
2022-11-12T14:21:07.379Z,83.4
2022-11-12T14:22:23.619Z,83.3
2022-11-12T14:23:39.860Z,83.4
2022-11-12T14:24:56.113Z,83.8
2022-11-12T14:26:12.344Z,83.4
2022-11-12T14:27:28.587Z,82.5
2022-11-12T14:28:44.825Z,81.5
2022-11-12T14:30:01.067Z,81.4
2022-11-12T14:31:17.313Z,81.2
2022-11-12T14:32:32.558Z,81.1
2022-11-12T14:33:48.806Z,81
2022-11-12T14:35:05.041Z,81.4
2022-11-12T14:36:21.275Z,81.7
2022-11-12T14:37:37.526Z,82.5
2022-11-12T14:40:10.014Z,82.7
2022-11-12T14:41:26.234Z,82.6
2022-11-12T14:42:42.483Z,81.6
2022-11-12T14:43:58.716Z,81.6
2022-11-12T14:45:14.956Z,81.8
2022-11-12T14:46:31.195Z,81.6
2022-11-12T14:47:47.453Z,81.4
2022-11-12T14:49:02.706Z,81.6
2022-11-12T14:50:18.942Z,81.8
2022-11-12T14:51:35.174Z,82
2022-11-12T14:52:51.423Z,82.8
2022-11-12T14:54:07.653Z,83.4
2022-11-12T14:55:23.894Z,83.8
2022-11-12T14:56:40.149Z,83.9
2022-11-12T14:59:12.620Z,84.1
2022-11-12T15:00:28.862Z,84.5
2022-11-12T15:01:45.098Z,84.5
2022-11-12T15:03:01.345Z,84.7
2022-11-12T15:04:17.574Z,84.9
2022-11-12T15:05:32.840Z,85.2
2022-11-12T15:06:49.075Z,85.7
2022-11-12T15:08:05.321Z,86.1
2022-11-12T15:09:21.550Z,86.3
2022-11-12T15:10:37.791Z,86.5
2022-11-12T15:11:54.037Z,86.5
2022-11-12T15:13:10.285Z,86.8
2022-11-12T15:15:42.755Z,87.2
2022-11-12T15:16:59.003Z,87.2
2022-11-12T15:18:15.240Z,87.1
2022-11-12T15:19:31.477Z,86.7
2022-11-12T15:20:47.733Z,86.2
2022-11-12T15:22:02.975Z,86
2022-11-12T15:23:19.223Z,85.7
2022-11-12T15:24:35.459Z,85.7
2022-11-12T15:25:51.699Z,85.5
2022-11-12T15:27:07.937Z,85.3
2022-11-12T15:28:24.178Z,85.5
2022-11-12T15:29:40.423Z,85.3
2022-11-12T15:30:56.669Z,85.3
2022-11-12T15:32:12.893Z,84.9
2022-11-12T15:33:29.137Z,84.9
2022-11-12T15:34:45.383Z,84.9
2022-11-12T15:36:01.620Z,85.2
2022-11-12T15:37:17.862Z,85.5
2022-11-12T15:38:33.111Z,85.8
2022-11-12T15:39:49.354Z,86.4
2022-11-12T15:41:05.608Z,86.3
2022-11-12T15:42:21.850Z,86
2022-11-12T15:43:38.085Z,85.9
2022-11-12T15:44:54.321Z,85.9
2022-11-12T15:46:10.558Z,86.3
2022-11-12T15:47:26.812Z,86.6
2022-11-12T15:48:43.042Z,86.8
2022-11-12T15:49:59.285Z,86.7
2022-11-12T15:51:15.531Z,86.4
2022-11-12T15:52:31.760Z,86
2022-11-12T15:53:48.013Z,86.6
2022-11-12T15:55:04.243Z,87
2022-11-12T15:56:19.500Z,87.2
2022-11-12T15:57:35.744Z,87
2022-11-12T15:58:51.977Z,86.7
2022-11-12T16:00:08.229Z,87.3
2022-11-12T16:01:24.527Z,86.7
2022-11-12T16:02:40.823Z,87.3
2022-11-12T16:03:57.099Z,87.5
2022-11-12T16:05:13.393Z,87.2
2022-11-12T16:06:29.708Z,86.8
2022-11-12T16:07:45.999Z,86.4
2022-11-12T16:09:02.279Z,86.3
2022-11-12T16:10:18.572Z,86.6
2022-11-12T16:11:34.884Z,86.5
2022-11-12T16:12:51.173Z,86.4
2022-11-12T16:14:06.479Z,86.5
2022-11-12T16:15:22.771Z,86.7
2022-11-12T16:16:39.079Z,86.1
2022-11-12T16:17:55.372Z,86.1
2022-11-12T16:19:11.648Z,87.1
2022-11-12T16:20:27.953Z,88
2022-11-12T16:21:44.251Z,88.5
2022-11-12T16:23:00.537Z,88.8
2022-11-12T16:24:16.834Z,88.9
2022-11-12T16:26:49.422Z,89.1
2022-11-12T16:28:05.721Z,89.5
2022-11-12T16:29:22.011Z,89.8
2022-11-12T16:30:37.332Z,89.4
2022-11-12T16:31:53.626Z,89.9
2022-11-12T16:34:26.199Z,89.7
2022-11-12T16:35:42.498Z,89.9
2022-11-12T16:36:58.807Z,90.1
2022-11-12T16:38:15.082Z,90.4
2022-11-12T16:39:31.393Z,90.5
2022-11-12T16:40:47.676Z,91
2022-11-12T16:42:03.975Z,90.6
2022-11-12T16:43:20.258Z,91
2022-11-12T16:44:36.563Z,91.5
2022-11-12T16:45:52.862Z,91.2
2022-11-12T16:47:08.160Z,91
2022-11-12T16:48:23.476Z,91.5
2022-11-12T16:49:39.786Z,91.3
2022-11-12T16:50:56.083Z,90.9
2022-11-12T16:52:12.357Z,91
2022-11-12T16:53:28.669Z,91.2
2022-11-12T16:54:44.961Z,91.4
2022-11-12T16:57:17.548Z,92.5
2022-11-12T16:58:33.833Z,92.5
2022-11-12T16:59:50.132Z,93
2022-11-12T17:01:06.427Z,92.5
2022-11-12T17:02:22.719Z,92
2022-11-12T17:03:39.023Z,92.1
2022-11-12T17:04:54.324Z,91.8
2022-11-12T17:06:10.632Z,92.3
2022-11-12T17:07:26.921Z,92.6
2022-11-12T17:08:43.218Z,92.5
2022-11-12T17:09:59.495Z,93
2022-11-12T17:12:32.101Z,92.6
2022-11-12T17:13:48.392Z,91.9
2022-11-12T17:15:04.688Z,91.7
2022-11-12T17:16:20.984Z,91.8
2022-11-12T17:17:37.268Z,92
2022-11-12T17:18:53.565Z,92.8
2022-11-12T17:21:26.163Z,92.7
2022-11-12T17:22:41.476Z,92.2
2022-11-12T17:23:56.776Z,91.6
2022-11-12T17:25:13.076Z,91.4
2022-11-12T17:27:45.669Z,91.9
2022-11-12T17:29:01.959Z,92.1
2022-11-12T17:30:18.259Z,92.5
2022-11-12T17:32:50.836Z,93.5
2022-11-12T17:34:07.138Z,93.5
2022-11-12T17:35:23.429Z,93.2
2022-11-12T17:36:39.718Z,93
2022-11-12T17:37:56.031Z,92.4
2022-11-12T17:39:11.345Z,92.1
2022-11-12T17:40:26.644Z,91.2
2022-11-12T17:41:42.942Z,91.1
2022-11-12T17:42:59.241Z,91.6
2022-11-12T17:44:15.537Z,92
2022-11-12T17:45:31.816Z,92.7
2022-11-12T17:46:48.124Z,93.1
2022-11-12T17:48:04.422Z,92.5
2022-11-12T17:50:37.012Z,92.2
2022-11-12T17:51:53.301Z,92.3
2022-11-12T17:53:09.595Z,92.9
2022-11-12T17:54:25.876Z,93.5
2022-11-12T17:55:42.170Z,93.8
2022-11-12T17:56:57.486Z,94
2022-11-12T17:58:13.784Z,94.2
2022-11-12T17:59:30.077Z,93.9
2022-11-12T18:00:46.371Z,94.1
2022-11-12T18:02:02.677Z,94.2
2022-11-12T18:03:18.965Z,94.3
2022-11-12T18:05:51.558Z,94.8